sensor_id;sensor_type;location;lat;lon;timestamp;temperature;humidity
22430;DHT22;11382;48.086;11.632;2023-11-21T00:01:54;7.50;99.90
22430;DHT22;11382;48.086;11.632;2023-11-21T00:04:24;7.50;99.90
22430;DHT22;11382;48.086;11.632;2023-11-21T00:06:52;7.50;99.90
22430;DHT22;11382;48.086;11.632;2023-11-21T00:09:20;7.50;99.90
22430;DHT22;11382;48.086;11.632;2023-11-21T00:11:48;7.50;99.90
22430;DHT22;11382;48.086;11.632;2023-11-21T00:14:16;7.60;99.90
22430;DHT22;11382;48.086;11.632;2023-11-21T00:16:45;7.60;99.90
22430;DHT22;11382;48.086;11.632;2023-11-21T00:19:13;7.60;99.90
22430;DHT22;11382;48.086;11.632;2023-11-21T00:21:43;7.50;99.90
22430;DHT22;11382;48.086;11.632;2023-11-21T00:24:12;7.50;99.90
22430;DHT22;11382;48.086;11.632;2023-11-21T00:26:41;7.50;99.90
22430;DHT22;11382;48.086;11.632;2023-11-21T00:29:09;7.50;99.90
22430;DHT22;11382;48.086;11.632;2023-11-21T00:31:37;7.40;99.90
22430;DHT22;11382;48.086;11.632;2023-11-21T00:34:07;7.40;99.90
22430;DHT22;11382;48.086;11.632;2023-11-21T00:36:35;7.30;99.90
22430;DHT22;11382;48.086;11.632;2023-11-21T00:39:03;7.40;99.90
22430;DHT22;11382;48.086;11.632;2023-11-21T00:41:32;7.40;99.90
22430;DHT22;11382;48.086;11.632;2023-11-21T00:44:00;7.50;99.90
22430;DHT22;11382;48.086;11.632;2023-11-21T00:46:28;7.50;99.90
22430;DHT22;11382;48.086;11.632;2023-11-21T00:48:56;7.50;99.90
22430;DHT22;11382;48.086;11.632;2023-11-21T00:51:26;7.50;99.90
22430;DHT22;11382;48.086;11.632;2023-11-21T00:53:54;7.50;99.90
22430;DHT22;11382;48.086;11.632;2023-11-21T00:56:22;7.40;99.90
22430;DHT22;11382;48.086;11.632;2023-11-21T00:58:50;7.40;99.90
22430;DHT22;11382;48.086;11.632;2023-11-21T01:01:19;7.50;99.90
22430;DHT22;11382;48.086;11.632;2023-11-21T01:03:49;7.40;99.90
22430;DHT22;11382;48.086;11.632;2023-11-21T01:06:18;7.30;99.90
22430;DHT22;11382;48.086;11.632;2023-11-21T01:08:49;7.30;99.90
22430;DHT22;11382;48.086;11.632;2023-11-21T01:11:17;7.30;99.90
22430;DHT22;11382;48.086;11.632;2023-11-21T01:13:45;7.20;99.90
22430;DHT22;11382;48.086;11.632;2023-11-21T01:16:13;7.20;99.90
22430;DHT22;11382;48.086;11.632;2023-11-21T01:18:41;7.10;99.90
22430;DHT22;11382;48.086;11.632;2023-11-21T01:21:09;7.10;99.90
22430;DHT22;11382;48.086;11.632;2023-11-21T01:23:37;7.10;99.90
22430;DHT22;11382;48.086;11.632;2023-11-21T01:26:06;7.10;99.90
22430;DHT22;11382;48.086;11.632;2023-11-21T01:28:36;7.00;99.90
22430;DHT22;11382;48.086;11.632;2023-11-21T01:31:04;6.90;99.90
22430;DHT22;11382;48.086;11.632;2023-11-21T01:33:34;6.90;99.90
22430;DHT22;11382;48.086;11.632;2023-11-21T01:36:02;6.80;99.90
22430;DHT22;11382;48.086;11.632;2023-11-21T01:38:30;6.60;99.90
22430;DHT22;11382;48.086;11.632;2023-11-21T01:41:00;6.60;99.90
22430;DHT22;11382;48.086;11.632;2023-11-21T01:43:30;6.50;99.90
22430;DHT22;11382;48.086;11.632;2023-11-21T01:45:59;6.50;99.90
22430;DHT22;11382;48.086;11.632;2023-11-21T01:48:27;6.60;99.90
22430;DHT22;11382;48.086;11.632;2023-11-21T01:50:56;6.70;99.90
22430;DHT22;11382;48.086;11.632;2023-11-21T01:53:24;6.70;99.90
22430;DHT22;11382;48.086;11.632;2023-11-21T01:55:55;6.70;99.90
22430;DHT22;11382;48.086;11.632;2023-11-21T01:58:25;6.70;99.90
22430;DHT22;11382;48.086;11.632;2023-11-21T02:00:55;6.60;99.90
22430;DHT22;11382;48.086;11.632;2023-11-21T02:03:23;6.60;99.90
22430;DHT22;11382;48.086;11.632;2023-11-21T02:05:51;6.60;99.90
22430;DHT22;11382;48.086;11.632;2023-11-21T02:08:20;6.50;99.90
22430;DHT22;11382;48.086;11.632;2023-11-21T02:10:48;6.40;99.90
22430;DHT22;11382;48.086;11.632;2023-11-21T02:13:16;6.50;99.90
22430;DHT22;11382;48.086;11.632;2023-11-21T02:15:44;6.50;99.90
22430;DHT22;11382;48.086;11.632;2023-11-21T02:18:13;6.50;99.90
22430;DHT22;11382;48.086;11.632;2023-11-21T02:20:42;6.50;99.90
22430;DHT22;11382;48.086;11.632;2023-11-21T02:23:12;6.60;99.90
22430;DHT22;11382;48.086;11.632;2023-11-21T02:25:40;6.60;99.90
22430;DHT22;11382;48.086;11.632;2023-11-21T02:28:09;6.80;99.90
22430;DHT22;11382;48.086;11.632;2023-11-21T02:30:40;6.90;99.90
22430;DHT22;11382;48.086;11.632;2023-11-21T02:33:09;7.10;99.90
22430;DHT22;11382;48.086;11.632;2023-11-21T02:35:39;7.10;99.90
22430;DHT22;11382;48.086;11.632;2023-11-21T02:38:07;7.10;99.90
22430;DHT22;11382;48.086;11.632;2023-11-21T02:40:36;7.10;99.90
22430;DHT22;11382;48.086;11.632;2023-11-21T02:43:04;7.20;99.90
22430;DHT22;11382;48.086;11.632;2023-11-21T02:45:32;7.10;99.90
22430;DHT22;11382;48.086;11.632;2023-11-21T02:48:00;7.10;99.90
22430;DHT22;11382;48.086;11.632;2023-11-21T02:50:29;7.10;99.90
22430;DHT22;11382;48.086;11.632;2023-11-21T02:52:57;7.20;99.90
22430;DHT22;11382;48.086;11.632;2023-11-21T02:55:27;7.10;99.90
22430;DHT22;11382;48.086;11.632;2023-11-21T02:57:57;7.00;99.90
22430;DHT22;11382;48.086;11.632;2023-11-21T03:00:25;7.10;99.90
22430;DHT22;11382;48.086;11.632;2023-11-21T03:02:55;7.00;99.90
22430;DHT22;11382;48.086;11.632;2023-11-21T03:05:25;6.90;99.90
22430;DHT22;11382;48.086;11.632;2023-11-21T03:07:53;6.90;99.90
22430;DHT22;11382;48.086;11.632;2023-11-21T03:10:22;7.00;99.90
22430;DHT22;11382;48.086;11.632;2023-11-21T03:12:50;7.00;99.90
22430;DHT22;11382;48.086;11.632;2023-11-21T03:15:19;7.00;99.90
22430;DHT22;11382;48.086;11.632;2023-11-21T03:17:47;7.00;99.90
22430;DHT22;11382;48.086;11.632;2023-11-21T03:20:17;7.00;99.90
22430;DHT22;11382;48.086;11.632;2023-11-21T03:22:45;6.90;99.90
22430;DHT22;11382;48.086;11.632;2023-11-21T03:25:14;6.90;99.90
22430;DHT22;11382;48.086;11.632;2023-11-21T03:27:44;6.90;99.90
22430;DHT22;11382;48.086;11.632;2023-11-21T03:30:12;7.00;99.90
22430;DHT22;11382;48.086;11.632;2023-11-21T03:32:42;7.00;99.90
22430;DHT22;11382;48.086;11.632;2023-11-21T03:35:10;7.00;99.90
22430;DHT22;11382;48.086;11.632;2023-11-21T03:37:38;7.00;99.90
22430;DHT22;11382;48.086;11.632;2023-11-21T03:40:09;7.00;99.90
22430;DHT22;11382;48.086;11.632;2023-11-21T03:42:39;7.00;99.90
22430;DHT22;11382;48.086;11.632;2023-11-21T03:45:08;7.00;99.90
22430;DHT22;11382;48.086;11.632;2023-11-21T03:47:36;7.00;99.90
22430;DHT22;11382;48.086;11.632;2023-11-21T03:50:07;7.00;99.90
22430;DHT22;11382;48.086;11.632;2023-11-21T03:52:36;6.90;99.90
22430;DHT22;11382;48.086;11.632;2023-11-21T03:55:05;6.90;99.90
22430;DHT22;11382;48.086;11.632;2023-11-21T03:57:33;7.00;99.90
22430;DHT22;11382;48.086;11.632;2023-11-21T04:00:01;7.00;99.90
22430;DHT22;11382;48.086;11.632;2023-11-21T04:02:37;7.00;99.90
22430;DHT22;11382;48.086;11.632;2023-11-21T04:05:08;7.00;99.90
22430;DHT22;11382;48.086;11.632;2023-11-21T04:07:36;7.00;99.90
22430;DHT22;11382;48.086;11.632;2023-11-21T04:10:06;7.00;99.90
22430;DHT22;11382;48.086;11.632;2023-11-21T04:12:36;7.10;99.90
22430;DHT22;11382;48.086;11.632;2023-11-21T04:15:04;7.10;99.90
22430;DHT22;11382;48.086;11.632;2023-11-21T04:17:32;7.10;99.90
22430;DHT22;11382;48.086;11.632;2023-11-21T04:20:00;7.10;99.90
22430;DHT22;11382;48.086;11.632;2023-11-21T04:22:30;7.10;99.90
22430;DHT22;11382;48.086;11.632;2023-11-21T04:24:57;7.10;99.90
22430;DHT22;11382;48.086;11.632;2023-11-21T04:27:25;7.20;99.90
22430;DHT22;11382;48.086;11.632;2023-11-21T04:29:54;7.20;99.90
22430;DHT22;11382;48.086;11.632;2023-11-21T04:32:22;7.10;99.90
22430;DHT22;11382;48.086;11.632;2023-11-21T04:34:50;7.20;99.90
22430;DHT22;11382;48.086;11.632;2023-11-21T04:37:18;7.10;99.90
22430;DHT22;11382;48.086;11.632;2023-11-21T04:39:48;7.10;99.90
22430;DHT22;11382;48.086;11.632;2023-11-21T04:42:16;7.10;99.90
22430;DHT22;11382;48.086;11.632;2023-11-21T04:44:44;7.10;99.90
22430;DHT22;11382;48.086;11.632;2023-11-21T04:47:12;7.10;99.90
22430;DHT22;11382;48.086;11.632;2023-11-21T04:49:42;7.10;99.90
22430;DHT22;11382;48.086;11.632;2023-11-21T04:52:10;7.00;99.90
22430;DHT22;11382;48.086;11.632;2023-11-21T04:54:38;7.10;99.90
22430;DHT22;11382;48.086;11.632;2023-11-21T04:57:08;7.00;99.90
22430;DHT22;11382;48.086;11.632;2023-11-21T04:59:36;7.00;99.90
22430;DHT22;11382;48.086;11.632;2023-11-21T05:02:04;7.00;99.90
22430;DHT22;11382;48.086;11.632;2023-11-21T05:04:33;7.00;99.90
22430;DHT22;11382;48.086;11.632;2023-11-21T05:07:01;6.90;99.90
22430;DHT22;11382;48.086;11.632;2023-11-21T05:09:29;6.90;99.90
22430;DHT22;11382;48.086;11.632;2023-11-21T05:11:59;6.90;99.90
22430;DHT22;11382;48.086;11.632;2023-11-21T05:14:28;6.90;99.90
22430;DHT22;11382;48.086;11.632;2023-11-21T05:16:56;7.00;99.90
22430;DHT22;11382;48.086;11.632;2023-11-21T05:19:26;6.90;99.90
22430;DHT22;11382;48.086;11.632;2023-11-21T05:21:54;7.00;99.90
22430;DHT22;11382;48.086;11.632;2023-11-21T05:24:22;6.90;99.90
22430;DHT22;11382;48.086;11.632;2023-11-21T05:26:49;6.90;99.90
22430;DHT22;11382;48.086;11.632;2023-11-21T05:29:17;6.90;99.90
22430;DHT22;11382;48.086;11.632;2023-11-21T05:31:47;6.90;99.90
22430;DHT22;11382;48.086;11.632;2023-11-21T05:34:17;7.00;99.90
22430;DHT22;11382;48.086;11.632;2023-11-21T05:36:50;7.00;99.90
22430;DHT22;11382;48.086;11.632;2023-11-21T05:39:20;7.00;99.90
22430;DHT22;11382;48.086;11.632;2023-11-21T05:41:52;7.00;99.90
22430;DHT22;11382;48.086;11.632;2023-11-21T05:44:21;7.00;99.90
22430;DHT22;11382;48.086;11.632;2023-11-21T05:46:52;7.00;99.90
22430;DHT22;11382;48.086;11.632;2023-11-21T05:49:22;7.00;99.90
22430;DHT22;11382;48.086;11.632;2023-11-21T05:51:50;7.10;99.90
22430;DHT22;11382;48.086;11.632;2023-11-21T05:54:20;7.00;99.90
22430;DHT22;11382;48.086;11.632;2023-11-21T05:56:48;7.00;99.90
22430;DHT22;11382;48.086;11.632;2023-11-21T05:59:16;7.00;99.90
22430;DHT22;11382;48.086;11.632;2023-11-21T06:01:49;7.10;99.90
22430;DHT22;11382;48.086;11.632;2023-11-21T06:04:21;7.10;99.90
22430;DHT22;11382;48.086;11.632;2023-11-21T06:06:51;7.10;99.90
22430;DHT22;11382;48.086;11.632;2023-11-21T06:09:21;7.00;99.90
22430;DHT22;11382;48.086;11.632;2023-11-21T06:11:49;7.10;99.90
22430;DHT22;11382;48.086;11.632;2023-11-21T06:14:17;7.00;99.90
22430;DHT22;11382;48.086;11.632;2023-11-21T06:16:46;7.00;99.90
22430;DHT22;11382;48.086;11.632;2023-11-21T06:19:14;7.10;99.90
22430;DHT22;11382;48.086;11.632;2023-11-21T06:21:46;7.10;99.90
22430;DHT22;11382;48.086;11.632;2023-11-21T06:24:14;7.10;99.90
22430;DHT22;11382;48.086;11.632;2023-11-21T06:26:57;7.10;99.90
22430;DHT22;11382;48.086;11.632;2023-11-21T06:29:25;7.20;99.90
22430;DHT22;11382;48.086;11.632;2023-11-21T06:31:53;7.10;99.90
22430;DHT22;11382;48.086;11.632;2023-11-21T06:34:22;7.10;99.90
22430;DHT22;11382;48.086;11.632;2023-11-21T06:36:51;7.10;99.90
22430;DHT22;11382;48.086;11.632;2023-11-21T06:39:19;7.10;99.90
22430;DHT22;11382;48.086;11.632;2023-11-21T06:41:49;7.20;99.90
22430;DHT22;11382;48.086;11.632;2023-11-21T06:44:17;7.20;99.90
22430;DHT22;11382;48.086;11.632;2023-11-21T06:46:46;7.20;99.90
22430;DHT22;11382;48.086;11.632;2023-11-21T06:49:15;7.20;99.90
22430;DHT22;11382;48.086;11.632;2023-11-21T06:51:43;7.20;99.90
22430;DHT22;11382;48.086;11.632;2023-11-21T06:54:13;7.20;99.90
22430;DHT22;11382;48.086;11.632;2023-11-21T06:56:41;7.20;99.90
22430;DHT22;11382;48.086;11.632;2023-11-21T06:59:09;7.20;99.90
22430;DHT22;11382;48.086;11.632;2023-11-21T07:01:37;7.30;99.90
22430;DHT22;11382;48.086;11.632;2023-11-21T07:04:08;7.20;99.90
22430;DHT22;11382;48.086;11.632;2023-11-21T07:06:36;7.20;99.90
22430;DHT22;11382;48.086;11.632;2023-11-21T07:09:04;7.20;99.90
22430;DHT22;11382;48.086;11.632;2023-11-21T07:11:34;7.30;99.90
22430;DHT22;11382;48.086;11.632;2023-11-21T07:14:02;7.30;99.90
22430;DHT22;11382;48.086;11.632;2023-11-21T07:16:34;7.30;99.90
22430;DHT22;11382;48.086;11.632;2023-11-21T07:19:04;7.30;99.90
22430;DHT22;11382;48.086;11.632;2023-11-21T07:21:33;7.30;99.90
22430;DHT22;11382;48.086;11.632;2023-11-21T07:24:01;7.40;99.90
22430;DHT22;11382;48.086;11.632;2023-11-21T07:26:30;7.40;99.90
22430;DHT22;11382;48.086;11.632;2023-11-21T07:28:59;7.40;99.90
22430;DHT22;11382;48.086;11.632;2023-11-21T07:31:27;7.40;99.90
22430;DHT22;11382;48.086;11.632;2023-11-21T07:33:56;7.50;99.90
22430;DHT22;11382;48.086;11.632;2023-11-21T07:36:24;7.50;99.90
22430;DHT22;11382;48.086;11.632;2023-11-21T07:38:52;7.60;99.90
22430;DHT22;11382;48.086;11.632;2023-11-21T07:41:20;7.60;99.90
22430;DHT22;11382;48.086;11.632;2023-11-21T07:43:58;7.60;99.90
22430;DHT22;11382;48.086;11.632;2023-11-21T07:46:26;7.60;99.90
22430;DHT22;11382;48.086;11.632;2023-11-21T07:48:54;7.60;99.90
22430;DHT22;11382;48.086;11.632;2023-11-21T07:51:22;7.70;99.90
22430;DHT22;11382;48.086;11.632;2023-11-21T07:53:50;7.80;99.90
22430;DHT22;11382;48.086;11.632;2023-11-21T07:56:18;7.80;99.90
22430;DHT22;11382;48.086;11.632;2023-11-21T07:58:46;7.90;99.90
22430;DHT22;11382;48.086;11.632;2023-11-21T08:01:18;8.00;99.90
22430;DHT22;11382;48.086;11.632;2023-11-21T08:03:46;8.00;99.90
22430;DHT22;11382;48.086;11.632;2023-11-21T08:06:18;8.20;99.90
22430;DHT22;11382;48.086;11.632;2023-11-21T08:08:46;8.30;99.90
22430;DHT22;11382;48.086;11.632;2023-11-21T08:11:14;8.40;99.90
22430;DHT22;11382;48.086;11.632;2023-11-21T08:13:44;8.40;99.90
22430;DHT22;11382;48.086;11.632;2023-11-21T08:16:12;8.50;99.90
22430;DHT22;11382;48.086;11.632;2023-11-21T08:18:42;8.60;99.90
22430;DHT22;11382;48.086;11.632;2023-11-21T08:21:12;8.60;99.90
22430;DHT22;11382;48.086;11.632;2023-11-21T08:23:40;8.60;99.90
22430;DHT22;11382;48.086;11.632;2023-11-21T08:26:08;8.70;99.90
22430;DHT22;11382;48.086;11.632;2023-11-21T08:28:36;8.90;99.90
22430;DHT22;11382;48.086;11.632;2023-11-21T08:31:04;9.00;99.90
22430;DHT22;11382;48.086;11.632;2023-11-21T08:33:32;9.00;99.90
22430;DHT22;11382;48.086;11.632;2023-11-21T08:36:07;9.00;99.90
22430;DHT22;11382;48.086;11.632;2023-11-21T08:38:35;8.90;99.90
22430;DHT22;11382;48.086;11.632;2023-11-21T08:41:05;8.90;99.90
22430;DHT22;11382;48.086;11.632;2023-11-21T08:43:35;9.10;99.90
22430;DHT22;11382;48.086;11.632;2023-11-21T08:46:06;9.10;99.90
22430;DHT22;11382;48.086;11.632;2023-11-21T08:48:35;9.10;99.90
22430;DHT22;11382;48.086;11.632;2023-11-21T08:51:05;9.10;99.90
22430;DHT22;11382;48.086;11.632;2023-11-21T08:53:33;9.10;99.90
22430;DHT22;11382;48.086;11.632;2023-11-21T08:56:02;9.00;99.90
22430;DHT22;11382;48.086;11.632;2023-11-21T08:58:31;9.10;99.90
22430;DHT22;11382;48.086;11.632;2023-11-21T09:00:59;9.10;99.90
22430;DHT22;11382;48.086;11.632;2023-11-21T09:03:27;9.10;99.90
22430;DHT22;11382;48.086;11.632;2023-11-21T09:05:55;9.10;99.90
22430;DHT22;11382;48.086;11.632;2023-11-21T09:08:24;9.20;99.90
22430;DHT22;11382;48.086;11.632;2023-11-21T09:10:52;9.40;99.90
22430;DHT22;11382;48.086;11.632;2023-11-21T09:13:20;9.60;99.90
22430;DHT22;11382;48.086;11.632;2023-11-21T09:15:51;10.00;99.90
22430;DHT22;11382;48.086;11.632;2023-11-21T09:18:19;10.30;99.90
22430;DHT22;11382;48.086;11.632;2023-11-21T09:20:47;10.50;99.90
22430;DHT22;11382;48.086;11.632;2023-11-21T09:23:15;10.80;99.90
22430;DHT22;11382;48.086;11.632;2023-11-21T09:25:45;10.70;99.90
22430;DHT22;11382;48.086;11.632;2023-11-21T09:28:15;10.70;99.90
22430;DHT22;11382;48.086;11.632;2023-11-21T09:30:44;10.50;99.90
22430;DHT22;11382;48.086;11.632;2023-11-21T09:33:12;10.30;99.90
22430;DHT22;11382;48.086;11.632;2023-11-21T09:35:40;10.40;99.90
22430;DHT22;11382;48.086;11.632;2023-11-21T09:38:10;10.40;99.90
22430;DHT22;11382;48.086;11.632;2023-11-21T09:40:38;10.40;99.90
22430;DHT22;11382;48.086;11.632;2023-11-21T09:43:09;10.40;99.90
22430;DHT22;11382;48.086;11.632;2023-11-21T09:45:45;10.20;99.90
22430;DHT22;11382;48.086;11.632;2023-11-21T09:48:14;10.10;99.90
22430;DHT22;11382;48.086;11.632;2023-11-21T09:50:43;10.30;99.90
22430;DHT22;11382;48.086;11.632;2023-11-21T09:53:16;10.60;99.90
22430;DHT22;11382;48.086;11.632;2023-11-21T09:55:46;10.70;99.90
22430;DHT22;11382;48.086;11.632;2023-11-21T09:58:16;10.70;99.90
22430;DHT22;11382;48.086;11.632;2023-11-21T10:00:45;10.90;99.90
22430;DHT22;11382;48.086;11.632;2023-11-21T10:03:14;11.10;99.90
22430;DHT22;11382;48.086;11.632;2023-11-21T10:05:44;11.60;99.90
22430;DHT22;11382;48.086;11.632;2023-11-21T10:08:13;11.70;99.90
22430;DHT22;11382;48.086;11.632;2023-11-21T10:10:44;11.50;99.90
22430;DHT22;11382;48.086;11.632;2023-11-21T10:13:14;11.30;99.90
22430;DHT22;11382;48.086;11.632;2023-11-21T10:15:49;11.20;99.90
22430;DHT22;11382;48.086;11.632;2023-11-21T10:18:17;11.40;99.90
22430;DHT22;11382;48.086;11.632;2023-11-21T10:20:45;11.60;99.90
22430;DHT22;11382;48.086;11.632;2023-11-21T10:23:20;11.80;99.90
22430;DHT22;11382;48.086;11.632;2023-11-21T10:25:50;12.00;99.90
22430;DHT22;11382;48.086;11.632;2023-11-21T10:28:20;12.10;99.90
22430;DHT22;11382;48.086;11.632;2023-11-21T10:30:48;12.40;99.90
22430;DHT22;11382;48.086;11.632;2023-11-21T10:33:16;12.40;99.90
22430;DHT22;11382;48.086;11.632;2023-11-21T10:35:45;12.40;99.90
22430;DHT22;11382;48.086;11.632;2023-11-21T10:38:18;12.40;99.90
22430;DHT22;11382;48.086;11.632;2023-11-21T10:40:48;12.20;99.90
22430;DHT22;11382;48.086;11.632;2023-11-21T10:43:16;12.20;99.90
22430;DHT22;11382;48.086;11.632;2023-11-21T10:45:46;12.10;99.90
22430;DHT22;11382;48.086;11.632;2023-11-21T10:48:15;11.90;99.90
22430;DHT22;11382;48.086;11.632;2023-11-21T10:50:45;11.70;99.90
22430;DHT22;11382;48.086;11.632;2023-11-21T10:53:13;11.40;99.90
22430;DHT22;11382;48.086;11.632;2023-11-21T10:55:42;11.10;99.90
22430;DHT22;11382;48.086;11.632;2023-11-21T10:58:13;11.00;99.90
22430;DHT22;11382;48.086;11.632;2023-11-21T11:00:41;10.80;99.90
22430;DHT22;11382;48.086;11.632;2023-11-21T11:03:14;10.90;99.90
22430;DHT22;11382;48.086;11.632;2023-11-21T11:05:44;11.10;99.90
22430;DHT22;11382;48.086;11.632;2023-11-21T11:08:19;11.30;99.90
22430;DHT22;11382;48.086;11.632;2023-11-21T11:10:54;11.10;99.90
22430;DHT22;11382;48.086;11.632;2023-11-21T11:13:23;11.00;99.90
22430;DHT22;11382;48.086;11.632;2023-11-21T11:15:57;11.00;99.90
22430;DHT22;11382;48.086;11.632;2023-11-21T11:18:29;11.00;99.90
22430;DHT22;11382;48.086;11.632;2023-11-21T11:21:15;11.00;99.90
22430;DHT22;11382;48.086;11.632;2023-11-21T11:23:59;11.10;99.90
22430;DHT22;11382;48.086;11.632;2023-11-21T11:26:41;11.30;99.90
22430;DHT22;11382;48.086;11.632;2023-11-21T11:29:17;11.40;99.90
22430;DHT22;11382;48.086;11.632;2023-11-21T11:31:55;11.40;99.90
22430;DHT22;11382;48.086;11.632;2023-11-21T11:34:29;11.40;99.90
22430;DHT22;11382;48.086;11.632;2023-11-21T11:37:01;11.50;99.90
22430;DHT22;11382;48.086;11.632;2023-11-21T11:39:30;11.60;99.90
22430;DHT22;11382;48.086;11.632;2023-11-21T11:42:04;11.80;99.90
22430;DHT22;11382;48.086;11.632;2023-11-21T11:44:47;12.10;99.90
22430;DHT22;11382;48.086;11.632;2023-11-21T11:47:24;12.30;99.90
22430;DHT22;11382;48.086;11.632;2023-11-21T11:50:15;12.20;99.90
22430;DHT22;11382;48.086;11.632;2023-11-21T11:52:47;12.00;99.90
22430;DHT22;11382;48.086;11.632;2023-11-21T11:55:19;11.70;99.90
22430;DHT22;11382;48.086;11.632;2023-11-21T11:57:48;11.50;99.90
22430;DHT22;11382;48.086;11.632;2023-11-21T12:00:19;11.30;99.90
22430;DHT22;11382;48.086;11.632;2023-11-21T12:02:49;11.10;99.90
22430;DHT22;11382;48.086;11.632;2023-11-21T12:05:20;10.70;99.90
22430;DHT22;11382;48.086;11.632;2023-11-21T12:07:51;10.50;99.90
22430;DHT22;11382;48.086;11.632;2023-11-21T12:10:21;10.40;99.90
22430;DHT22;11382;48.086;11.632;2023-11-21T12:12:54;10.50;99.90
22430;DHT22;11382;48.086;11.632;2023-11-21T12:15:22;10.70;99.90
22430;DHT22;11382;48.086;11.632;2023-11-21T12:17:51;10.90;99.90
22430;DHT22;11382;48.086;11.632;2023-11-21T12:20:22;11.00;99.90
22430;DHT22;11382;48.086;11.632;2023-11-21T12:22:51;11.20;99.90
22430;DHT22;11382;48.086;11.632;2023-11-21T12:25:21;11.30;99.90
22430;DHT22;11382;48.086;11.632;2023-11-21T12:27:50;11.30;99.90
22430;DHT22;11382;48.086;11.632;2023-11-21T12:30:20;11.10;99.90
22430;DHT22;11382;48.086;11.632;2023-11-21T12:32:50;11.00;99.90
22430;DHT22;11382;48.086;11.632;2023-11-21T12:35:21;11.00;99.90
22430;DHT22;11382;48.086;11.632;2023-11-21T12:37:51;11.10;99.90
22430;DHT22;11382;48.086;11.632;2023-11-21T12:40:20;11.10;99.90
22430;DHT22;11382;48.086;11.632;2023-11-21T12:42:52;11.20;99.90
22430;DHT22;11382;48.086;11.632;2023-11-21T12:45:21;11.10;99.90
22430;DHT22;11382;48.086;11.632;2023-11-21T12:47:54;11.10;99.90
22430;DHT22;11382;48.086;11.632;2023-11-21T12:50:26;11.10;99.90
22430;DHT22;11382;48.086;11.632;2023-11-21T12:52:59;11.10;99.90
22430;DHT22;11382;48.086;11.632;2023-11-21T12:55:31;11.30;99.90
22430;DHT22;11382;48.086;11.632;2023-11-21T12:58:01;11.40;99.90
22430;DHT22;11382;48.086;11.632;2023-11-21T13:00:36;11.60;99.90
22430;DHT22;11382;48.086;11.632;2023-11-21T13:03:07;11.70;99.90
22430;DHT22;11382;48.086;11.632;2023-11-21T13:05:40;11.70;99.90
22430;DHT22;11382;48.086;11.632;2023-11-21T13:08:15;11.70;99.90
22430;DHT22;11382;48.086;11.632;2023-11-21T13:10:49;11.80;99.90
22430;DHT22;11382;48.086;11.632;2023-11-21T13:13:18;11.70;99.90
22430;DHT22;11382;48.086;11.632;2023-11-21T13:15:51;11.60;99.90
22430;DHT22;11382;48.086;11.632;2023-11-21T13:18:22;11.50;99.90
22430;DHT22;11382;48.086;11.632;2023-11-21T13:20:52;11.10;99.90
22430;DHT22;11382;48.086;11.632;2023-11-21T13:23:21;10.30;99.90
22430;DHT22;11382;48.086;11.632;2023-11-21T13:25:50;9.60;99.90
22430;DHT22;11382;48.086;11.632;2023-11-21T13:28:28;9.20;99.90
22430;DHT22;11382;48.086;11.632;2023-11-21T13:31:00;8.90;99.90
22430;DHT22;11382;48.086;11.632;2023-11-21T13:33:37;8.70;99.90
22430;DHT22;11382;48.086;11.632;2023-11-21T13:36:07;8.80;99.90
22430;DHT22;11382;48.086;11.632;2023-11-21T13:38:36;8.90;99.90
22430;DHT22;11382;48.086;11.632;2023-11-21T13:41:08;9.00;99.90
22430;DHT22;11382;48.086;11.632;2023-11-21T13:43:39;9.20;99.90
22430;DHT22;11382;48.086;11.632;2023-11-21T13:46:10;9.30;99.90
22430;DHT22;11382;48.086;11.632;2023-11-21T13:48:42;9.20;99.90
22430;DHT22;11382;48.086;11.632;2023-11-21T13:51:19;9.30;99.90
22430;DHT22;11382;48.086;11.632;2023-11-21T13:53:51;9.50;99.90
22430;DHT22;11382;48.086;11.632;2023-11-21T13:56:22;9.70;99.90
22430;DHT22;11382;48.086;11.632;2023-11-21T13:58:51;9.70;99.90
22430;DHT22;11382;48.086;11.632;2023-11-21T14:01:23;9.70;99.90
22430;DHT22;11382;48.086;11.632;2023-11-21T14:04:09;9.80;99.90
22430;DHT22;11382;48.086;11.632;2023-11-21T14:06:48;10.00;99.90
22430;DHT22;11382;48.086;11.632;2023-11-21T14:09:21;10.10;99.90
22430;DHT22;11382;48.086;11.632;2023-11-21T14:11:52;10.30;99.90
22430;DHT22;11382;48.086;11.632;2023-11-21T14:14:22;10.20;99.90
22430;DHT22;11382;48.086;11.632;2023-11-21T14:16:51;10.10;99.90
22430;DHT22;11382;48.086;11.632;2023-11-21T14:19:19;10.20;99.90
22430;DHT22;11382;48.086;11.632;2023-11-21T14:21:49;10.30;99.90
22430;DHT22;11382;48.086;11.632;2023-11-21T14:24:17;10.10;99.90
22430;DHT22;11382;48.086;11.632;2023-11-21T14:26:46;10.00;99.90
22430;DHT22;11382;48.086;11.632;2023-11-21T14:29:15;9.90;99.90
22430;DHT22;11382;48.086;11.632;2023-11-21T14:31:47;9.70;99.90
22430;DHT22;11382;48.086;11.632;2023-11-21T14:34:15;9.30;99.90
22430;DHT22;11382;48.086;11.632;2023-11-21T14:36:49;9.00;99.90
22430;DHT22;11382;48.086;11.632;2023-11-21T14:39:17;8.80;99.90
22430;DHT22;11382;48.086;11.632;2023-11-21T14:41:51;8.70;99.90
22430;DHT22;11382;48.086;11.632;2023-11-21T14:44:20;8.60;99.90
22430;DHT22;11382;48.086;11.632;2023-11-21T14:46:53;8.60;99.90
22430;DHT22;11382;48.086;11.632;2023-11-21T14:49:25;8.60;99.90
22430;DHT22;11382;48.086;11.632;2023-11-21T14:51:56;8.60;99.90
22430;DHT22;11382;48.086;11.632;2023-11-21T14:54:31;8.60;99.90
22430;DHT22;11382;48.086;11.632;2023-11-21T14:57:07;8.50;99.90
22430;DHT22;11382;48.086;11.632;2023-11-21T14:59:44;8.50;99.90
22430;DHT22;11382;48.086;11.632;2023-11-21T15:02:13;8.50;99.90
22430;DHT22;11382;48.086;11.632;2023-11-21T15:04:48;8.50;99.90
22430;DHT22;11382;48.086;11.632;2023-11-21T15:07:20;8.50;99.90
22430;DHT22;11382;48.086;11.632;2023-11-21T15:09:48;8.50;99.90
22430;DHT22;11382;48.086;11.632;2023-11-21T15:12:17;8.30;99.90
22430;DHT22;11382;48.086;11.632;2023-11-21T15:14:50;8.30;99.90
22430;DHT22;11382;48.086;11.632;2023-11-21T15:17:20;8.30;99.90
22430;DHT22;11382;48.086;11.632;2023-11-21T15:19:53;8.30;99.90
22430;DHT22;11382;48.086;11.632;2023-11-21T15:22:22;8.20;99.90
22430;DHT22;11382;48.086;11.632;2023-11-21T15:24:52;8.30;99.90
22430;DHT22;11382;48.086;11.632;2023-11-21T15:27:20;8.20;99.90
22430;DHT22;11382;48.086;11.632;2023-11-21T15:29:48;8.20;99.90
22430;DHT22;11382;48.086;11.632;2023-11-21T15:32:17;8.10;99.90
22430;DHT22;11382;48.086;11.632;2023-11-21T15:34:45;8.20;99.90
22430;DHT22;11382;48.086;11.632;2023-11-21T15:37:13;8.20;99.90
22430;DHT22;11382;48.086;11.632;2023-11-21T15:39:43;8.10;99.90
22430;DHT22;11382;48.086;11.632;2023-11-21T15:42:11;8.10;99.90
22430;DHT22;11382;48.086;11.632;2023-11-21T15:44:39;8.00;99.90